createdAt,value
2023-04-04T00:01:17.701Z,14.38
2023-04-04T00:03:47.607Z,14.60
2023-04-04T00:06:17.394Z,14.25
2023-04-04T00:08:48.727Z,14.70
2023-04-04T00:11:18.408Z,14.02
2023-04-04T00:13:48.290Z,12.07
2023-04-04T00:16:20.614Z,14.27
2023-04-04T00:18:50.514Z,13.32
2023-04-04T00:21:20.300Z,14.65
2023-04-04T00:23:53.310Z,13.40
2023-04-04T00:26:23.821Z,14.50
2023-04-04T00:28:53.798Z,14.10
2023-04-04T00:31:24.735Z,13.55
2023-04-04T00:33:54.514Z,14.98
2023-04-04T00:36:25.180Z,14.55
2023-04-04T00:38:54.839Z,14.30
2023-04-04T00:41:25.429Z,13.35
2023-04-04T00:43:55.179Z,15.07
2023-04-04T00:46:26.691Z,13.70
2023-04-04T00:48:57.123Z,14.27
2023-04-04T00:51:27.047Z,13.20
2023-04-04T00:53:57.061Z,14.32
2023-04-04T00:56:26.970Z,14.00
2023-04-04T00:58:57.109Z,13.30
2023-04-04T01:01:29.609Z,12.65
2023-04-04T01:04:04.445Z,14.55
2023-04-04T01:06:37.710Z,13.40
2023-04-04T01:09:08.171Z,14.55
2023-04-04T01:11:37.952Z,14.43
2023-04-04T01:14:07.874Z,17.70
2023-04-04T01:16:37.956Z,16.83
2023-04-04T01:19:08.480Z,16.48
2023-04-04T01:21:39.069Z,13.75
2023-04-04T01:24:09.086Z,14.02
2023-04-04T01:26:39.159Z,15.38
2023-04-04T01:29:08.948Z,18.83
2023-04-04T01:31:44.041Z,16.17
2023-04-04T01:34:17.178Z,15.45
2023-04-04T01:36:52.458Z,14.77
2023-04-04T01:39:42.112Z,16.52
2023-04-04T01:42:12.318Z,13.93
2023-04-04T01:44:42.165Z,15.60
2023-04-04T01:47:11.868Z,17.02
2023-04-04T01:49:41.531Z,14.70
2023-04-04T01:52:11.166Z,16.33
2023-04-04T01:54:44.213Z,18.63
2023-04-04T01:57:14.409Z,14.70
2023-04-04T01:59:44.094Z,15.80
2023-04-04T02:02:13.897Z,17.88
2023-04-04T02:04:43.717Z,17.70
2023-04-04T02:07:22.631Z,18.63
2023-04-04T02:09:53.175Z,21.35
2023-04-04T02:12:23.892Z,18.52
2023-04-04T02:14:57.550Z,19.23
2023-04-04T02:17:29.997Z,18.17
2023-04-04T02:19:59.888Z,16.55
2023-04-04T02:22:29.846Z,19.20
2023-04-04T02:25:02.215Z,17.40
2023-04-04T02:27:32.060Z,21.90
2023-04-04T02:30:02.764Z,19.50
2023-04-04T02:32:32.515Z,17.25
2023-04-04T02:35:02.276Z,18.13
2023-04-04T02:37:32.213Z,18.08
2023-04-04T02:40:02.118Z,16.63
2023-04-04T02:42:32.007Z,17.25
2023-04-04T02:45:02.405Z,17.00
2023-04-04T02:47:32.132Z,18.67
2023-04-04T02:50:01.810Z,15.45
2023-04-04T02:52:32.214Z,16.83
2023-04-04T02:55:02.406Z,21.63
2023-04-04T02:57:32.242Z,16.42
2023-04-04T03:00:01.971Z,18.45
2023-04-04T03:02:32.413Z,17.85
2023-04-04T03:05:02.514Z,17.50
2023-04-04T03:07:32.440Z,15.73
2023-04-04T03:10:04.591Z,18.17
2023-04-04T03:12:34.321Z,16.20
2023-04-04T03:15:04.667Z,16.30
2023-04-04T03:17:35.273Z,17.25
2023-04-04T03:20:07.902Z,16.30
2023-04-04T03:22:37.611Z,18.38
2023-04-04T03:25:07.759Z,18.55
2023-04-04T03:27:38.540Z,18.90
2023-04-04T03:30:10.533Z,16.80
2023-04-04T03:32:41.083Z,16.83
2023-04-04T03:35:12.194Z,17.52
2023-04-04T03:37:46.095Z,17.35
2023-04-04T03:40:17.819Z,15.95
2023-04-04T03:42:48.353Z,17.05
2023-04-04T03:45:19.415Z,21.55
2023-04-04T03:47:50.346Z,31.33
2023-04-04T03:50:21.177Z,26.20
2023-04-04T03:52:51.697Z,24.67
2023-04-04T03:55:22.167Z,29.05
2023-04-04T03:57:52.856Z,28.23
2023-04-04T04:00:23.371Z,25.77
2023-04-04T04:02:53.219Z,29.75
2023-04-04T04:05:23.191Z,31.27
2023-04-04T04:07:54.594Z,32.17
2023-04-04T04:10:24.948Z,38.38
2023-04-04T04:12:55.774Z,37.30
2023-04-04T04:15:26.941Z,42.17
2023-04-04T04:18:00.419Z,41.10
2023-04-04T04:20:30.478Z,39.17
2023-04-04T04:23:00.983Z,48.20
2023-04-04T04:25:31.063Z,69.53
2023-04-04T04:28:00.818Z,167.07
2023-04-04T04:30:30.801Z,137.25
2023-04-04T04:33:00.868Z,105.40
2023-04-04T04:35:33.741Z,83.20
2023-04-04T04:38:03.638Z,73.28
2023-04-04T04:40:34.221Z,59.22
2023-04-04T04:43:04.342Z,53.75
2023-04-04T04:45:34.506Z,45.42
2023-04-04T04:48:05.254Z,39.20
2023-04-04T04:50:35.262Z,35.30
2023-04-04T04:53:05.939Z,37.13
2023-04-04T04:55:35.568Z,33.13
2023-04-04T04:58:07.787Z,28.52
2023-04-04T05:00:38.473Z,23.73
2023-04-04T05:03:11.440Z,20.13
2023-04-04T05:05:41.208Z,23.58
2023-04-04T05:08:11.013Z,22.40
2023-04-04T05:10:41.840Z,20.88
2023-04-04T05:13:15.554Z,21.98
2023-04-04T05:15:45.303Z,16.80
2023-04-04T05:18:15.110Z,17.08
2023-04-04T05:20:45.099Z,16.70
2023-04-04T05:23:14.810Z,15.75
2023-04-04T05:25:44.547Z,16.38
2023-04-04T05:28:14.480Z,12.80
2023-04-04T05:30:44.242Z,17.55
2023-04-04T05:33:13.940Z,13.60
2023-04-04T05:35:43.742Z,13.43
2023-04-04T05:38:14.077Z,13.15
2023-04-04T05:40:43.825Z,13.88
2023-04-04T05:43:14.114Z,12.80
2023-04-04T05:45:43.887Z,10.15
2023-04-04T05:48:13.589Z,13.57
2023-04-04T05:50:44.471Z,16.00
2023-04-04T05:53:14.193Z,11.38
2023-04-04T05:55:43.868Z,10.73
2023-04-04T05:58:14.356Z,10.18
2023-04-04T06:00:44.237Z,11.70
2023-04-04T06:03:14.251Z,11.25
2023-04-04T06:05:46.145Z,11.10
2023-04-04T06:08:15.796Z,11.10
2023-04-04T06:10:45.426Z,12.73
2023-04-04T06:13:15.136Z,12.23
2023-04-04T06:15:44.854Z,12.95
2023-04-04T06:18:14.615Z,13.32
2023-04-04T06:20:44.298Z,22.33
2023-04-04T06:23:14.206Z,14.07
2023-04-04T06:25:43.877Z,12.30
2023-04-04T06:28:17.335Z,12.05
2023-04-04T06:30:47.231Z,9.68
2023-04-04T06:33:17.163Z,12.55
2023-04-04T06:35:47.444Z,10.32
2023-04-04T06:38:17.122Z,20.65
2023-04-04T06:40:46.779Z,23.50
2023-04-04T06:43:17.019Z,18.00
2023-04-04T06:45:46.735Z,18.40
2023-04-04T06:48:17.396Z,11.18
2023-04-04T06:50:47.711Z,16.85
2023-04-04T06:53:17.407Z,13.90
2023-04-04T06:55:47.028Z,10.85
2023-04-04T06:58:16.943Z,11.07
2023-04-04T07:00:46.665Z,8.88
2023-04-04T07:03:16.446Z,11.73
2023-04-04T07:05:46.264Z,7.72
2023-04-04T07:08:15.956Z,7.13
2023-04-04T07:10:45.907Z,8.45
2023-04-04T07:13:16.172Z,5.90
2023-04-04T07:15:51.720Z,9.35
2023-04-04T07:18:21.380Z,5.50
2023-04-04T07:20:51.124Z,4.60
2023-04-04T07:23:20.764Z,3.95
2023-04-04T07:25:50.451Z,5.25
2023-04-04T07:28:20.078Z,5.50
2023-04-04T07:30:49.759Z,3.65
2023-04-04T07:33:19.445Z,3.72
2023-04-04T07:35:50.095Z,3.17
2023-04-04T07:38:20.500Z,5.30
2023-04-04T07:40:52.953Z,3.88
2023-04-04T07:43:22.970Z,3.38
2023-04-04T07:45:52.621Z,3.60
2023-04-04T07:48:23.789Z,5.25
2023-04-04T07:50:53.382Z,3.00
2023-04-04T07:53:23.038Z,3.75
2023-04-04T07:55:52.687Z,4.35
2023-04-04T07:58:23.702Z,5.95
2023-04-04T08:00:53.564Z,5.10
2023-04-04T08:03:25.777Z,6.03
2023-04-04T08:05:55.678Z,2.60
2023-04-04T08:08:25.414Z,2.85
2023-04-04T08:10:55.142Z,3.15
2023-04-04T08:13:24.848Z,2.13
2023-04-04T08:15:54.527Z,2.75
2023-04-04T08:18:24.230Z,3.45
2023-04-04T08:20:53.913Z,2.85
2023-04-04T08:23:23.565Z,3.85
2023-04-04T08:25:53.300Z,2.50
2023-04-04T08:28:23.037Z,3.88
2023-04-04T08:30:55.867Z,2.55
2023-04-04T08:33:37.163Z,3.05
2023-04-04T08:36:16.391Z,2.22
2023-04-04T08:38:46.177Z,2.95
2023-04-04T08:41:17.352Z,3.03
2023-04-04T08:43:55.872Z,2.97
2023-04-04T08:46:25.941Z,2.90
2023-04-04T08:48:55.928Z,3.42
2023-04-04T08:51:25.783Z,3.42
2023-04-04T08:53:55.671Z,3.08
2023-04-04T08:56:26.038Z,4.93
2023-04-04T08:58:55.816Z,2.15
2023-04-04T09:01:25.483Z,2.78
2023-04-04T09:03:55.140Z,2.65
2023-04-04T09:06:25.508Z,3.95
2023-04-04T09:08:55.632Z,4.00
2023-04-04T09:11:25.302Z,3.28
2023-04-04T09:13:55.017Z,2.78
2023-04-04T09:16:25.234Z,3.58
2023-04-04T09:18:55.158Z,2.45
2023-04-04T09:21:24.823Z,3.42
2023-04-04T09:24:04.569Z,2.47
2023-04-04T09:26:55.827Z,2.00
2023-04-04T09:29:25.543Z,2.85
2023-04-04T09:31:55.395Z,3.45
2023-04-04T09:34:25.182Z,3.38
2023-04-04T09:36:55.639Z,2.13
2023-04-04T09:39:25.670Z,3.35
2023-04-04T09:41:56.063Z,1.80
2023-04-04T09:44:26.540Z,3.38
2023-04-04T09:46:56.265Z,1.65
2023-04-04T09:49:25.968Z,1.77
2023-04-04T09:51:58.749Z,2.10
2023-04-04T09:54:30.130Z,2.08
2023-04-04T09:57:00.401Z,1.95
2023-04-04T09:59:30.084Z,2.17
2023-04-04T10:01:59.856Z,1.70
2023-04-04T10:04:30.360Z,1.60
2023-04-04T10:07:02.692Z,2.35
2023-04-04T10:09:32.367Z,2.22
2023-04-04T10:12:12.281Z,2.08
2023-04-04T10:14:41.999Z,2.30
2023-04-04T10:17:15.153Z,2.10
2023-04-04T10:19:44.811Z,2.83
2023-04-04T10:22:14.467Z,2.13
2023-04-04T10:24:44.149Z,2.20
2023-04-04T10:27:13.789Z,1.60
2023-04-04T10:29:43.553Z,2.72
2023-04-04T10:32:14.890Z,1.70
2023-04-04T10:35:05.006Z,2.17
2023-04-04T10:37:40.163Z,2.28
2023-04-04T10:40:21.042Z,3.17
2023-04-04T10:42:50.737Z,1.70
2023-04-04T10:45:21.672Z,3.17
2023-04-04T10:47:51.792Z,1.80
2023-04-04T10:50:22.156Z,1.92
2023-04-04T10:52:51.941Z,2.50
2023-04-04T10:55:21.575Z,2.40
2023-04-04T10:57:54.138Z,1.60
2023-04-04T11:00:25.753Z,1.92
2023-04-04T11:02:56.124Z,2.95
2023-04-04T11:05:48.751Z,1.75
2023-04-04T11:08:23.886Z,1.60
2023-04-04T11:10:54.898Z,2.05
2023-04-04T11:13:37.359Z,2.53
2023-04-04T11:16:17.160Z,2.67
2023-04-04T11:18:50.312Z,1.92
2023-04-04T11:21:21.412Z,2.28
2023-04-04T11:23:50.970Z,3.50
2023-04-04T11:26:30.009Z,4.00
2023-04-04T11:29:00.428Z,3.05
2023-04-04T11:31:31.679Z,2.10
2023-04-04T11:34:05.142Z,3.13
2023-04-04T11:36:41.714Z,2.67
2023-04-04T11:39:16.440Z,4.50
2023-04-04T11:42:18.034Z,5.00
2023-04-04T11:44:56.759Z,5.38
2023-04-04T11:47:26.687Z,5.68
2023-04-04T11:49:56.480Z,5.47
2023-04-04T11:52:27.002Z,7.82
2023-04-04T11:54:56.681Z,6.18
2023-04-04T11:57:26.341Z,8.10
2023-04-04T11:59:56.399Z,6.10
2023-04-04T12:02:35.753Z,6.30
2023-04-04T12:05:06.583Z,8.52
2023-04-04T12:07:36.933Z,7.13
2023-04-04T12:10:07.521Z,6.32
2023-04-04T12:12:41.126Z,7.10
2023-04-04T12:15:17.255Z,7.20
2023-04-04T12:17:47.923Z,7.10
2023-04-04T12:20:21.493Z,6.88
2023-04-04T12:22:54.851Z,7.38
2023-04-04T12:25:25.587Z,6.90
2023-04-04T12:27:56.506Z,7.55
2023-04-04T12:30:26.230Z,7.15
2023-04-04T12:32:55.890Z,6.97
2023-04-04T12:35:26.305Z,8.93
2023-04-04T12:38:05.830Z,9.52
2023-04-04T12:40:39.225Z,7.72
2023-04-04T12:43:12.011Z,7.75
2023-04-04T12:45:45.371Z,8.45
2023-04-04T12:48:16.473Z,7.32
2023-04-04T12:51:02.401Z,8.98
2023-04-04T12:53:34.470Z,7.38
2023-04-04T12:56:06.100Z,8.20
2023-04-04T12:58:37.102Z,7.50
2023-04-04T13:01:08.524Z,8.48
2023-04-04T13:03:39.382Z,7.50
2023-04-04T13:06:32.472Z,9.00
2023-04-04T13:09:02.757Z,9.05
2023-04-04T13:11:58.093Z,10.82
2023-04-04T13:14:28.263Z,8.82
2023-04-04T13:17:11.014Z,9.23
2023-04-04T13:19:40.724Z,9.60
2023-04-04T13:22:13.341Z,8.98
2023-04-04T13:24:42.996Z,9.57
2023-04-04T13:27:12.699Z,9.27
2023-04-04T13:29:42.514Z,9.75
2023-04-04T13:32:12.185Z,9.95
2023-04-04T13:34:41.850Z,7.90
2023-04-04T13:37:11.548Z,8.43
2023-04-04T13:39:41.237Z,7.75
2023-04-04T13:42:10.953Z,7.90
2023-04-04T13:44:40.712Z,8.85
2023-04-04T13:47:10.354Z,10.15
2023-04-04T13:49:40.004Z,9.15
2023-04-04T13:52:09.676Z,8.45
2023-04-04T13:54:39.346Z,9.00
2023-04-04T13:57:08.980Z,8.07
2023-04-04T13:59:41.675Z,10.27
2023-04-04T14:02:12.125Z,8.52
2023-04-04T14:04:41.914Z,10.48
2023-04-04T14:07:12.811Z,9.02
2023-04-04T14:09:42.450Z,9.13
2023-04-04T14:14:42.878Z,9.50
2023-04-04T14:17:12.912Z,9.80
2023-04-04T14:19:42.602Z,9.18
2023-04-04T14:22:12.873Z,9.80
2023-04-04T14:24:42.936Z,8.68
2023-04-04T14:27:12.784Z,9.38
2023-04-04T14:29:42.848Z,9.63
2023-04-04T14:32:13.157Z,9.88
2023-04-04T14:34:42.844Z,9.85
2023-04-04T14:37:12.504Z,8.32
2023-04-04T14:39:42.257Z,9.88
2023-04-04T14:42:12.063Z,10.43
2023-04-04T14:44:43.688Z,9.32
2023-04-04T14:47:14.515Z,8.63
2023-04-04T14:49:44.996Z,8.98
2023-04-04T14:52:14.727Z,9.98
2023-04-04T14:54:44.384Z,8.75
2023-04-04T14:57:14.031Z,10.13
2023-04-04T14:59:46.667Z,8.88
2023-04-04T15:02:17.732Z,9.13
2023-04-04T15:04:47.957Z,9.40
2023-04-04T15:07:18.048Z,8.52
2023-04-04T15:09:48.025Z,9.50
2023-04-04T15:12:18.536Z,9.43
2023-04-04T15:14:49.952Z,9.02
2023-04-04T15:17:19.645Z,8.75
2023-04-04T15:19:52.518Z,8.82
2023-04-04T15:22:23.855Z,8.85
2023-04-04T15:24:54.491Z,9.35
2023-04-04T15:27:24.203Z,8.13
2023-04-04T15:29:54.625Z,9.02
2023-04-04T15:32:41.691Z,9.40
2023-04-04T15:35:23.415Z,9.30
2023-04-04T15:37:59.315Z,8.48
2023-04-04T15:40:38.479Z,9.48
2023-04-04T15:43:08.852Z,9.20
2023-04-04T15:45:38.721Z,8.15
2023-04-04T15:48:08.667Z,8.35
2023-04-04T15:50:38.805Z,8.88
2023-04-04T15:53:09.114Z,9.05
2023-04-04T15:55:39.084Z,8.27
2023-04-04T15:58:09.124Z,9.90
2023-04-04T16:00:44.307Z,8.43
2023-04-04T16:03:16.070Z,9.02
2023-04-04T16:05:47.163Z,9.48
2023-04-04T16:08:17.210Z,8.63
2023-04-04T16:10:51.444Z,8.15
2023-04-04T16:13:24.560Z,9.13
2023-04-04T16:15:54.823Z,7.97
2023-04-04T16:18:28.380Z,7.75
2023-04-04T16:21:09.082Z,7.95
2023-04-04T16:23:45.551Z,9.35
2023-04-04T16:26:28.516Z,9.38
2023-04-04T16:28:58.917Z,8.43
2023-04-04T16:31:29.613Z,8.55
2023-04-04T16:34:00.206Z,9.10
2023-04-04T16:36:30.681Z,9.13
2023-04-04T16:39:02.694Z,8.82
2023-04-04T16:41:42.628Z,7.57
2023-04-04T16:44:14.169Z,9.02
2023-04-04T16:46:44.598Z,7.63
2023-04-04T16:49:33.030Z,8.35
2023-04-04T16:52:02.681Z,8.77
2023-04-04T16:54:33.576Z,9.38
2023-04-04T16:57:09.044Z,8.90
2023-04-04T16:59:38.827Z,8.32
2023-04-04T17:02:28.405Z,8.68
2023-04-04T17:05:00.169Z,7.60
2023-04-04T17:07:39.617Z,8.48
2023-04-04T17:10:10.882Z,8.18
2023-04-04T17:13:02.533Z,8.02
2023-04-04T17:15:33.914Z,8.23
2023-04-04T17:18:11.601Z,7.55
2023-04-04T17:20:41.988Z,8.63
2023-04-04T17:23:26.151Z,7.88
2023-04-04T17:25:57.933Z,7.47
2023-04-04T17:28:28.028Z,8.90
2023-04-04T17:30:58.095Z,7.60
2023-04-04T17:33:30.862Z,9.73
2023-04-04T17:36:00.613Z,7.70
2023-04-04T17:38:50.307Z,8.80
2023-04-04T17:41:24.049Z,8.50
2023-04-04T17:44:03.185Z,8.90
2023-04-04T17:46:33.711Z,8.30
2023-04-04T17:49:23.708Z,8.02
2023-04-04T17:52:05.001Z,10.68
2023-04-04T17:54:35.590Z,7.50
2023-04-04T17:57:09.028Z,8.98
2023-04-04T17:59:39.730Z,8.77
2023-04-04T18:05:02.719Z,7.78
2023-04-04T18:07:35.801Z,7.63
2023-04-04T18:10:16.780Z,8.77
2023-04-04T18:12:55.450Z,8.98
2023-04-04T18:18:07.920Z,8.85
2023-04-04T18:20:47.829Z,8.02
2023-04-04T18:26:13.595Z,7.95
2023-04-04T18:28:45.626Z,8.43
2023-04-04T18:31:20.419Z,7.82
2023-04-04T18:33:53.912Z,8.43
2023-04-04T18:36:39.559Z,7.70
2023-04-04T18:39:11.775Z,7.28
2023-04-04T18:41:42.406Z,9.35
2023-04-04T18:44:12.298Z,7.15
2023-04-04T18:46:42.831Z,8.70
2023-04-04T18:49:13.569Z,7.82
2023-04-04T18:51:44.192Z,7.32
2023-04-04T18:54:14.901Z,7.18
2023-04-04T18:56:45.297Z,7.63
2023-04-04T18:59:16.829Z,6.53
2023-04-04T19:01:47.201Z,7.68
2023-04-04T19:04:18.678Z,6.40
2023-04-04T19:06:52.972Z,7.40
2023-04-04T19:09:23.235Z,7.40
2023-04-04T19:11:54.747Z,7.05
2023-04-04T19:14:24.990Z,7.13
2023-04-04T19:16:55.560Z,7.38
2023-04-04T19:19:26.436Z,7.97
2023-04-04T19:21:56.959Z,7.95
2023-04-04T19:24:27.381Z,8.30
2023-04-04T19:26:57.814Z,7.28
2023-04-04T19:29:28.535Z,6.13
2023-04-04T19:31:58.376Z,6.72
2023-04-04T19:34:28.043Z,8.00
2023-04-04T19:36:57.892Z,7.65
2023-04-04T19:39:27.642Z,7.15
2023-04-04T19:41:58.840Z,6.55
2023-04-04T19:44:28.530Z,5.65
2023-04-04T19:47:00.370Z,6.72
2023-04-04T19:49:34.570Z,6.63
2023-04-04T19:52:07.601Z,5.63
2023-04-04T19:54:41.747Z,7.78
2023-04-04T19:57:25.446Z,7.50
2023-04-04T20:00:15.115Z,7.78
2023-04-04T20:02:55.452Z,6.75
2023-04-04T20:05:34.220Z,5.47
2023-04-04T20:08:03.942Z,6.22
2023-04-04T20:10:41.503Z,5.82
2023-04-04T20:13:11.630Z,5.30
2023-04-04T20:15:51.190Z,3.38
2023-04-04T20:18:26.975Z,4.03
2023-04-04T20:21:04.311Z,4.18
2023-04-04T20:23:34.606Z,2.45
2023-04-04T20:26:08.452Z,3.55
2023-04-04T20:28:45.741Z,3.10
2023-04-04T20:31:19.782Z,3.15
2023-04-04T20:33:49.866Z,2.30
2023-04-04T20:36:22.488Z,3.97
2023-04-04T20:38:52.195Z,2.10
2023-04-04T20:41:25.788Z,2.38
2023-04-04T20:43:59.715Z,3.00
2023-04-04T20:46:29.890Z,2.20
2023-04-04T20:48:59.578Z,1.95
2023-04-04T20:51:35.424Z,2.03
2023-04-04T20:54:05.607Z,1.98
2023-04-04T20:56:44.428Z,1.80
2023-04-04T20:59:36.782Z,1.80
2023-04-04T21:02:18.330Z,2.53
2023-04-04T21:04:50.948Z,1.88
2023-04-04T21:07:43.850Z,2.03
2023-04-04T21:10:31.890Z,1.80
2023-04-04T21:13:04.910Z,1.85
2023-04-04T21:15:40.174Z,1.70
2023-04-04T21:18:14.015Z,2.53
2023-04-04T21:20:49.382Z,2.45
2023-04-04T21:23:28.140Z,1.77
2023-04-04T21:25:59.075Z,1.60
2023-04-04T21:28:44.216Z,1.65
2023-04-04T21:31:17.745Z,2.17
2023-04-04T21:33:52.096Z,1.92
2023-04-04T21:36:30.745Z,1.80
2023-04-04T21:39:04.716Z,1.70
2023-04-04T21:41:37.695Z,2.72
2023-04-04T21:44:09.053Z,2.58
2023-04-04T21:46:40.318Z,1.83
2023-04-04T21:49:10.653Z,1.83
2023-04-04T21:51:40.302Z,1.80
2023-04-04T21:54:10.092Z,1.63
2023-04-04T21:56:42.656Z,1.85
2023-04-04T21:59:12.377Z,1.77
2023-04-04T22:01:42.395Z,1.55
2023-04-04T22:04:12.250Z,2.60
2023-04-04T22:06:41.954Z,2.83
2023-04-04T22:09:12.200Z,3.55
2023-04-04T22:11:45.839Z,1.67
2023-04-04T22:14:18.863Z,1.60
2023-04-04T22:16:48.691Z,2.05
2023-04-04T22:19:18.369Z,3.15
2023-04-04T22:21:48.671Z,2.97
2023-04-04T22:24:19.761Z,1.70
2023-04-04T22:26:51.864Z,1.70
2023-04-04T22:29:21.583Z,1.70
2023-04-04T22:31:51.309Z,1.40
2023-04-04T22:34:21.057Z,1.85
2023-04-04T22:36:50.682Z,2.03
2023-04-04T22:39:22.018Z,1.60
2023-04-04T22:41:51.698Z,2.85
2023-04-04T22:44:24.380Z,1.83
2023-04-04T22:46:54.185Z,1.70
2023-04-04T22:49:23.862Z,1.50
2023-04-04T22:51:56.960Z,3.00
2023-04-04T22:54:26.656Z,3.35
2023-04-04T22:56:56.321Z,2.75
2023-04-04T22:59:27.340Z,2.75
2023-04-04T23:01:57.585Z,3.78
2023-04-04T23:04:28.607Z,5.25
2023-04-04T23:06:58.243Z,2.53
2023-04-04T23:09:31.651Z,2.90
2023-04-04T23:12:01.440Z,1.30
2023-04-04T23:14:32.409Z,3.28
2023-04-04T23:17:02.111Z,1.77
2023-04-04T23:19:31.785Z,1.73
2023-04-04T23:22:01.531Z,3.05
2023-04-04T23:24:31.232Z,2.17
2023-04-04T23:27:01.114Z,5.28
2023-04-04T23:29:30.747Z,1.52
2023-04-04T23:32:00.479Z,1.48
2023-04-04T23:34:30.166Z,1.63
2023-04-04T23:37:02.832Z,1.77
2023-04-04T23:39:32.804Z,1.60
2023-04-04T23:42:02.678Z,2.55
2023-04-04T23:44:32.368Z,1.77
2023-04-04T23:47:02.080Z,1.98
2023-04-04T23:49:31.866Z,1.95
2023-04-04T23:52:04.134Z,1.60
2023-04-04T23:54:33.880Z,3.15
2023-04-04T23:57:04.097Z,2.75
2023-04-04T23:59:33.750Z,3.95
